Waarschuwingen Drenthe

Code Geel.Enkele onweersbuien, lokaal mogelijk met windstoten (meer dan 60 km/uur) en hagel.

Kans op blikseminslag, hagel en windstoten. Verkeer en buitenactiviteiten kunnen hinder ondervinden. Mijd open water en open gebied, schuil niet onder bomen. Volg weerberichten en waarschuwingen. (van 16/05/2022 16:00 tot 16/05/2022 19:00 uur)

Bron: KNMI



Webcam op het Zuiden Meer informatie Webcam op het Zuiden


Webcam op het Westen Meer informatie Webcam op het Westen


Onweer radar Meer informatie blitzortung!


Regen radar  rain snow radar


Lokaal brand risico:
CBI


Regionaal brand risico: Meer informatie


Lokaal brand risico:
Gebaseerd op actuele waarde
CBI


Bezoek ook deze websites:

Template documentation
and downloads

And another site



METAR rapporten vliegvelden

   
ETWM - Meppen, Germany
Afstand tot: O 29 km
Gewijzigd: 16-05-2022 13:20
Grotendeels bewolkt  
Grotendeels bewolkt  
   Wind: ZO 11.1 km/h
Wind: ZO 11.1 km/h
Temperatuur: 25°C
Dauwpunt: 9°C
Vochtigheid: 36%
Barometer: 1014 hPa
Bewolking: Grotendeels bewolkt
Zicht: meer dan 10 km
Bewolking: Licht bewolkt 5500 ft,
Grotendeels bewolkt 14000 ft
ETWM 161120Z 13006KT 9999 FEW055 BKN140 25/09 Q1014 BLU
EHGG - Groningen/Eelde, Netherlands
Afstand tot: NNW 47 km
Gewijzigd: 16-05-2022 13:55
Wat regen mogelijk, Licht bewolkt  
Wat regen mogelijk, Licht bewolkt  
   Wind: Zuiden 14.8 km/h
Wind: Zuiden 14.8 km/h
Temperatuur: 23°C
Dauwpunt: 11°C
Vochtigheid: 47%
Barometer: 1014 hPa
Bewolking: Licht bewolkt
Zicht: meer dan 10 km
Bewolking: Licht bewolkt 4500 ft,
Licht bewolkt 4800 ft
EHGG 161155Z AUTO 17008KT 130V210 9999 -RA FEW045 FEW048CB 23/11 Q1014 BECMG CAVOK
EDDG - Muenster/Osnabru, Germany
Afstand tot: ZO 87 km
Gewijzigd: 16-05-2022 13:50
Licht bewolkt  
Licht bewolkt  
   Wind: ZW 9.3 km/h
Wind: ZW 9.3 km/h
Temperatuur: 24°C
Dauwpunt: 12°C
Vochtigheid: 47%
Barometer: 1015 hPa
Bewolking: Licht bewolkt
Zicht: meer dan 10 km
Bewolking: Licht bewolkt 6000 ft
EDDG 161150Z 22005KT 170V270 9999 FEW060CB 24/12 Q1015 NOSIG
EHLW - Leeuwarden Rnlaf, Netherlands
Afstand tot: NW 93 km
Gewijzigd: 16-05-2022 13:55
Bewolking  
Bewolking  
   Wind: Zuiden 16.7 km/h
Wind: Zuiden 16.7 km/h
Temperatuur: 22°C
Dauwpunt: 11°C
Vochtigheid: 50%
Barometer: 1014 hPa
Bewolking: Bewolking
Zicht: meer dan 10 km
Bewolking: Bewolking 10000 ft
EHLW 161155Z AUTO 17009KT 120V230 9999 OVC100 22/11 Q1014 BLU BECMG 24011KT
ETNT - Wittmundhaven(Ga, Germany
Afstand tot: NNO 100 km
Gewijzigd: 16-05-2022 13:20
Grotendeels bewolkt  
Grotendeels bewolkt  
   Wind: OZO 18.5 km/h
Wind: OZO 18.5 km/h
Temperatuur: 24°C
Dauwpunt: 10°C
Vochtigheid: 41%
Barometer: 1015 hPa
Bewolking: Grotendeels bewolkt
Zicht: meer dan 10 km
Bewolking: Licht bewolkt 16000 ft,
Grotendeels bewolkt 20000 ft
ETNT 161120Z 11010KT 9999 FEW160 BKN200 24/10 Q1015 BLACKBLU+
ETND - Diepholz (ger-Af, Germany
Afstand tot: O 104 km
Gewijzigd: 16-05-2022 14:00
Grotendeels bewolkt  
Grotendeels bewolkt  
   Wind: Zuiden 11.1 km/h
Wind: Zuiden 11.1 km/h
Temperatuur: 23°C
Dauwpunt: 11°C
Vochtigheid: 47%
Barometer: 1015 hPa
Bewolking: Grotendeels bewolkt
Zicht: meer dan 10 km
Bewolking: Gedeeltelijk bewolkt 11000 ft,
Grotendeels bewolkt 14000 ft
ETND 161200Z 17006KT 9999 SCT110 BKN140 23/11 Q1015 BLU FCST CANCEL
ETNT - Wittmundhaven(Ga, Germany
Afstand tot: NNO 102 km
Gewijzigd: 16-05-2022 13:20
Grotendeels bewolkt  
Grotendeels bewolkt  
   Wind: OZO 18.5 km/h
Wind: OZO 18.5 km/h
Temperatuur: 24°C
Dauwpunt: 10°C
Vochtigheid: 41%
Barometer: 1015 hPa
Bewolking: Grotendeels bewolkt
Zicht: meer dan 10 km
Bewolking: Licht bewolkt 16000 ft,
Grotendeels bewolkt 20000 ft
ETNT 161120Z 11010KT 9999 FEW160 BKN200 24/10 Q1015 BLACKBLU+
EHDL - Deelen Rnlafb, Netherlands
Afstand tot: ZW 103 km
Gewijzigd: 16-05-2022 13:55
Onweer, Grotendeels bewolkt  
Onweer, Grotendeels bewolkt  
   Wind: varieert 14.8 km/h
Wind: varieert 14.8 km/h
Temperatuur: 25°C
Dauwpunt: 14°C
Vochtigheid: 51%
Barometer: 1014 hPa
Bewolking: Grotendeels bewolkt
Zicht: meer dan 10 km
Bewolking: Grotendeels bewolkt 4500 ft,
Licht bewolkt 4700 ft,
Grotendeels bewolkt 7900 ft,
Grotendeels bewolkt 10300 ft
EHDL 161155Z AUTO VRB08KT 9999 TS BKN045 FEW047CB BKN079 BKN103 25/14 Q1014 BLU
EHMA - Awg-1 Sea, Netherlands
Afstand tot: NW 105 km
Gewijzigd: 16-05-2022 13:55
Gedeeltelijk bewolkt  
Gedeeltelijk bewolkt  
   Wind: OZO 20.4 km/h
Wind: OZO 20.4 km/h
Temperatuur: 20°C
Dauwpunt: 12°C
Vochtigheid: 60%
Barometer: 1014 hPa
Bewolking: Gedeeltelijk bewolkt
Zicht: meer dan 10 km
Bewolking: Gedeeltelijk bewolkt
EHMA 161155Z AUTO 12011KT 9999 NSC 20/12 Q1014
EDDW - Bremen, Germany
Afstand tot: ONO 135 km
Gewijzigd: 16-05-2022 13:50
Helder  
Helder  
   Wind: OZO 20.4 km/h
Wind: OZO 20.4 km/h
Temperatuur: 25°C
Dauwpunt: 9°C
Vochtigheid: 36%
Barometer: 1015 hPa
Zicht: meer dan 10 km
Bewolking: Helder
EDDW 161150Z AUTO 12011KT 080V160 CAVOK 25/09 Q1015 NOSIG
EHVL - Vlieland Island, Netherlands
Afstand tot: WNW 138 km
Gewijzigd: 16-05-2022 13:55
Bewolking  
Bewolking  
   Wind: ZZW 29.6 km/h
Wind: ZZW 29.6 km/h
Temperatuur: 21°C
Dauwpunt: 13°C
Vochtigheid: 60%
Barometer: 1014 hPa
Bewolking: Bewolking
Zicht: meer dan 10 km
Bewolking: Bewolking 29000 ft
EHVL 161155Z AUTO 21016KT 170V240 9999 OVC290 21/13 Q1014 BLU
EDLV - Niederrhein, Germany
Afstand tot: ZZW 139 km
Gewijzigd: 16-05-2022 13:50
Lichte regen, Regen, Nearby Thunderstorm, Licht bewolkt  
Lichte regen, Regen, Nearby Thunderstorm, Licht bewolkt  
   Wind: ZZW 16.7 km/h
Wind: ZZW 16.7 km/h
Temperatuur: 19°C
Dauwpunt: 17°C
Vochtigheid: 88%
Barometer: 1015 hPa
Bewolking: Licht bewolkt
Zicht: 9 km
Bewolking: Licht bewolkt 3100 ft
EDLV 161150Z 21009KT 9000 -SHRA VCTS FEW031CB 19/17 Q1015
EHKD - De Kooy (navy), Netherlands
Afstand tot: W 144 km
Gewijzigd: 16-05-2022 13:55
Bewolking  
Bewolking  
   Wind: WZW 18.5 km/h
Wind: WZW 18.5 km/h
Temperatuur: 18°C
Dauwpunt: 13°C
Vochtigheid: 73%
Barometer: 1014 hPa
Bewolking: Bewolking
Zicht: meer dan 10 km
Bewolking: Bewolking 8900 ft
EHKD 161155Z AUTO 25010KT 220V290 9999 OVC089 18/13 Q1014 BLU TEMPO 5000 SHRA SCT028CB
EDLW - Dortmund/Wickede, Germany
Afstand tot: ZZO 150 km
Gewijzigd: 16-05-2022 13:50
Helder  
Helder  
   Wind: varieert 5.6 km/h
Wind: varieert 5.6 km/h
Temperatuur: 23°C
Dauwpunt: 14°C
Vochtigheid: 57%
Barometer: 1015 hPa
Zicht: meer dan 10 km
Bewolking: Helder
EDLW 161150Z VRB03KT CAVOK 23/14 Q1015
EHVK - Volkel Rnlafb, Netherlands
Afstand tot: ZZW 149 km
Gewijzigd: 16-05-2022 13:55
Bewolking  
Bewolking  
   Wind: Westen 20.4 km/h
Wind: Westen 20.4 km/h
Temperatuur: 24°C
Dauwpunt: 15°C
Vochtigheid: 57%
Barometer: 1015 hPa
Bewolking: Bewolking
Zicht: meer dan 10 km
Bewolking: Licht bewolkt 3300 ft,
Licht bewolkt 3500 ft,
Gedeeltelijk bewolkt 6600 ft,
Bewolking 13000 ft
EHVK 161155Z AUTO 26011KT 210V300 9999 FEW033 FEW035CB SCT066 OVC130 24/15 Q1015 RETS BLU TEMPO 25015G25KT 3500 SHRA TSRA SCT030CB SCT040
EDLW - Dortmund/Wickede, Germany
Afstand tot: ZZO 150 km
Gewijzigd: 16-05-2022 13:50
Helder  
Helder  
   Wind: varieert 5.6 km/h
Wind: varieert 5.6 km/h
Temperatuur: 23°C
Dauwpunt: 14°C
Vochtigheid: 57%
Barometer: 1015 hPa
Zicht: meer dan 10 km
Bewolking: Helder
EDLW 161150Z VRB03KT CAVOK 23/14 Q1015
EHMG - L9-Ff-1 Sea, Netherlands
Afstand tot: NW 155 km
Gewijzigd: 16-05-2022 13:55
Gedeeltelijk bewolkt  
Gedeeltelijk bewolkt  
   Wind: ZO 24.1 km/h
Wind: ZO 24.1 km/h
Temperatuur: 14°C
Dauwpunt: 11°C
Vochtigheid: 82%
Barometer: 1015 hPa
Bewolking: Gedeeltelijk bewolkt
Zicht: meer dan 10 km
Bewolking: Gedeeltelijk bewolkt
EHMG 161155Z AUTO 13013KT 9999 NSC 14/11 Q1015
ETHB - Buckeburg(Ger-Ar, Germany
Afstand tot: OZO 161 km
Gewijzigd: 16-05-2022 13:20
Grotendeels bewolkt  
Grotendeels bewolkt  
   Wind: Zuiden 13 km/h
Wind: Zuiden 13 km/h
Temperatuur: 24°C
Dauwpunt: 11°C
Vochtigheid: 44%
Barometer: 1015 hPa
Bewolking: Grotendeels bewolkt
Zicht: meer dan 10 km
Bewolking: Licht bewolkt 9000 ft,
Grotendeels bewolkt 12000 ft,
Grotendeels bewolkt 22000 ft
ETHB 161120Z 17007KT 9999 FEW090 BKN120 BKN220 24/11 Q1015 BLU BLU
ETMN - Nordholz (ger-Na, Germany
Afstand tot: NO 164 km
Gewijzigd: 16-05-2022 13:20
Grotendeels bewolkt  
Grotendeels bewolkt  
   Wind: Oosten 20.4 km/h
Wind: Oosten 20.4 km/h
Temperatuur: 23°C
Dauwpunt: 7°C
Vochtigheid: 36%
Barometer: 1016 hPa
Bewolking: Grotendeels bewolkt
Zicht: meer dan 10 km
Bewolking: Licht bewolkt 19000 ft,
Grotendeels bewolkt 25000 ft
ETMN 161120Z 10011KT 9999 FEW190 BKN250 23/07 Q1016 BLU+BLU+
EDDL - Duesseldorf, Germany
Afstand tot: Z 165 km
Gewijzigd: 16-05-2022 13:50
Onweer, Hagel, Regen, Licht bewolkt  
Onweer, Hagel, Regen, Licht bewolkt  
   Wind: WZW 24.1 km/h<br />Gust to 24.1 km/h
Wind: WZW 24.1 km/h
Gust to 24.1 km/h
Bewolking: Licht bewolkt
Zicht: meer dan 10 km
Bewolking: Licht bewolkt 4400 ft
EDDL 161150Z AUTO 24013G25KT 9999 TSGRRA FEW044 SCT///CB 22/16 Q1015 BECMG NSW
EDLN - Monchengladbach, Germany
Afstand tot: Z 174 km
Gewijzigd: 16-05-2022 13:50
Helder  
Helder  
   Wind: ZW 16.7 km/h
Wind: ZW 16.7 km/h
Temperatuur: 25°C
Dauwpunt: 16°C
Vochtigheid: 57%
Barometer: 1015 hPa
Zicht: meer dan 10 km
Bewolking: Helder
EDLN 161150Z 23009KT 190V260 CAVOK 25/16 Q1015

Script ontwikkeld door  Saratoga-weather.org Aangepast voor de template door  Weerstation Leuven

U vindt ons ook hier:

Het Weer Aktueel

European Weather Network

Weather Underground

Wetterpage 24

Apparatuur in gebruik:

Weerstation
Davis VP2

Weerprogramma
Meteohub

Hardware
RaspberryPI, Wireless Weather Envoy, MeteoStick, TP-Link MR3020

Leverancier
Weerhuisje.nl weerstations

Davis VP2

Meteohub

RaspberryPI, Wireless Weather Envoy, MeteoStick, TP-Link MR3020

Weerhuisje.nl weerstations